Time;durP1;ratioP1;P1;durP2;ratioP2;P2;SDS_P1;SDS_P2;PMS_P1;PMS_P2;Temp;Humidity;BMP_temperature;BMP_pressure;BME280_temperature;BME280_humidity;BME280_pressure;Samples;Min_cycle;Max_cycle;Signal;HPM_P1;HPM_P2
2024/03/01 02:30:53;;;;;;;;;;;7.00;99.90;;;;;;5409652;22;19955;-85
2024/03/01 02:33:19;;;;;;;;;;;7.00;99.90;;;;;;5060674;28;19905;-87
2024/03/01 02:35:46;;;;;;;;;;;7.00;99.90;;;;;;5059739;28;19936;-86
2024/03/01 02:38:13;;;;;;;;;;;7.00;99.90;;;;;;5058835;28;19921;-87
2024/03/01 02:40:40;;;;;;;;;;;7.10;99.90;;;;;;5057654;28;19932;-86
2024/03/01 02:43:07;;;;;;;;;;;7.60;99.90;;;;;;5050668;28;19921;-86
2024/03/01 02:46:09;;;;;;;;;;;7.00;99.90;;;;;;5166234;23;19905;-89
2024/03/01 02:52:45;;;;;;;;;;;;;;;;;;;;;
2024/03/01 03:24:04;;;;;;;;;;;;;;;;;;;;;
2024/03/01 03:33:08;;;;;;;;;;;7.20;99.90;;;;;;5002556;23;19932;-87
2024/03/01 03:35:34;;;;;;;;;;;7.20;99.90;;;;;;5047673;28;19928;-87
2024/03/01 03:38:03;;;;;;;;;;;7.10;99.90;;;;;;5045709;28;19981;-88
2024/03/01 03:40:30;;;;;;;;;;;7.20;99.90;;;;;;5060391;28;19928;-88
2024/03/01 03:42:56;;;;;;;;;;;7.20;99.90;;;;;;5058733;28;19975;-88
2024/03/01 03:45:23;;;;;;;;;;;6.80;99.90;;;;;;5045601;28;19955;-88
2024/03/01 03:47:50;;;;;;;;;;;7.00;99.90;;;;;;5045706;28;20015;-88
2024/03/01 03:50:18;;;;;;;;;;;7.30;99.90;;;;;;5045622;28;19993;-88
2024/03/01 03:52:44;;;;;;;;;;;7.20;99.90;;;;;;5046426;28;19990;-86
2024/03/01 03:55:11;;;;;;;;;;;7.20;99.90;;;;;;5045315;28;20007;-88
2024/03/01 03:57:38;;;;;;;;;;;7.40;99.90;;;;;;5045777;28;19921;-88
2024/03/01 04:00:08;;;;;;;;;;;7.20;99.90;;;;;;5046611;28;19921;-88
2024/03/01 04:02:35;;;;;;;;;;;7.20;99.90;;;;;;5046692;28;20278;-87
2024/03/01 04:05:02;;;;;;;;;;;7.20;99.90;;;;;;5045692;28;20007;-87
2024/03/01 04:07:31;;;;;;;;;;;7.30;99.90;;;;;;5051605;28;19988;-87
2024/03/01 04:09:58;;;;;;;;;;;7.20;99.90;;;;;;5057520;28;19932;-87
2024/03/01 04:12:28;;;;;;;;;;;7.30;99.90;;;;;;5046990;28;19975;-86
2024/03/01 04:14:55;;;;;;;;;;;7.30;99.90;;;;;;5049595;28;19944;-86
2024/03/01 04:17:21;;;;;;;;;;;7.20;99.90;;;;;;5059690;28;19909;-87
2024/03/01 04:19:48;;;;;;;;;;;7.30;99.90;;;;;;5059754;28;19909;-87
2024/03/01 04:22:15;;;;;;;;;;;7.30;99.90;;;;;;5059685;28;19944;-86
2024/03/01 04:24:43;;;;;;;;;;;7.30;99.90;;;;;;5059668;28;19905;-85
2024/03/01 04:27:11;;;;;;;;;;;7.30;99.90;;;;;;5059743;28;19972;-87
2024/03/01 04:29:38;;;;;;;;;;;7.30;99.90;;;;;;5048811;28;19927;-86
2024/03/01 04:32:07;;;;;;;;;;;6.80;99.90;;;;;;5047270;28;19928;-87
2024/03/01 04:34:33;;;;;;;;;;;7.30;99.90;;;;;;5045896;28;19927;-87
2024/03/01 04:37:00;;;;;;;;;;;7.30;99.90;;;;;;5047310;28;19920;-87
2024/03/01 04:39:27;;;;;;;;;;;7.30;99.90;;;;;;5045038;28;19932;-87
2024/03/01 04:41:56;;;;;;;;;;;7.30;99.90;;;;;;5046604;28;19925;-87
2024/03/01 04:44:22;;;;;;;;;;;8.30;99.90;;;;;;5046159;28;19921;-88
2024/03/01 04:46:49;;;;;;;;;;;7.40;99.90;;;;;;5045782;28;20417;-89
2024/03/01 04:49:16;;;;;;;;;;;7.30;99.90;;;;;;5043595;28;19921;-87
2024/03/01 04:51:42;;;;;;;;;;;7.30;99.90;;;;;;5043404;28;19943;-87
2024/03/01 04:54:09;;;;;;;;;;;7.00;99.90;;;;;;5048320;28;19951;-86
2024/03/01 04:56:36;;;;;;;;;;;7.20;99.90;;;;;;5051639;28;19929;-87
2024/03/01 04:59:05;;;;;;;;;;;7.30;99.90;;;;;;5047022;28;19960;-88
2024/03/01 05:01:31;;;;;;;;;;;7.80;99.90;;;;;;5049095;28;19920;-87
2024/03/01 05:03:58;;;;;;;;;;;7.30;99.90;;;;;;5046387;28;19967;-87
2024/03/01 05:06:25;;;;;;;;;;;7.50;99.90;;;;;;5047066;28;19953;-86
2024/03/01 05:08:52;;;;;;;;;;;7.40;99.90;;;;;;5044668;28;20441;-86
2024/03/01 05:11:18;;;;;;;;;;;7.20;99.90;;;;;;5045694;28;19921;-87
2024/03/01 05:13:45;;;;;;;;;;;7.60;99.90;;;;;;5046527;28;19921;-87
2024/03/01 05:16:14;;;;;;;;;;;7.40;99.90;;;;;;5045840;28;20374;-87
2024/03/01 05:18:41;;;;;;;;;;;7.20;99.90;;;;;;5044918;28;19921;-88
2024/03/01 05:21:10;;;;;;;;;;;7.40;99.90;;;;;;5051628;28;20337;-88
2024/03/01 05:23:37;;;;;;;;;;;7.40;99.90;;;;;;5057872;28;19921;-87
2024/03/01 05:26:04;;;;;;;;;;;7.40;99.90;;;;;;5058399;28;19913;-87
2024/03/01 05:28:31;;;;;;;;;;;7.40;99.90;;;;;;5050466;28;19928;-86
2024/03/01 05:31:01;;;;;;;;;;;7.50;99.90;;;;;;5046423;28;19928;-87
2024/03/01 05:33:29;;;;;;;;;;;7.70;99.90;;;;;;5044639;28;19991;-87
2024/03/01 05:35:56;;;;;;;;;;;7.30;99.90;;;;;;5045074;28;20016;-87
2024/03/01 05:38:22;;;;;;;;;;;7.40;99.90;;;;;;5043501;28;19952;-87
2024/03/01 05:40:49;;;;;;;;;;;7.40;99.90;;;;;;5044996;28;19928;-86
2024/03/01 05:43:16;;;;;;;;;;;7.50;99.90;;;;;;5044757;28;19928;-86
2024/03/01 05:45:43;;;;;;;;;;;7.50;99.90;;;;;;5044480;28;20011;-86
2024/03/01 05:48:12;;;;;;;;;;;7.50;99.90;;;;;;5046186;28;19921;-87
2024/03/01 05:50:41;;;;;;;;;;;7.50;99.90;;;;;;5046396;28;19921;-87
2024/03/01 05:53:14;;;;;;;;;;;7.80;99.90;;;;;;5047953;28;19924;-86
2024/03/01 05:55:40;;;;;;;;;;;7.50;99.90;;;;;;5048764;28;19921;-88
2024/03/01 05:58:10;;;;;;;;;;;7.50;99.90;;;;;;5047202;28;19968;-86
2024/03/01 06:00:39;;;;;;;;;;;7.50;99.90;;;;;;5046689;28;19920;-87
2024/03/01 06:03:06;;;;;;;;;;;7.40;99.90;;;;;;5047212;28;19929;-86
2024/03/01 06:05:32;;;;;;;;;;;7.40;99.90;;;;;;5046567;28;19921;-86
2024/03/01 06:08:01;;;;;;;;;;;7.40;99.90;;;;;;5048109;28;19975;-87
2024/03/01 06:10:27;;;;;;;;;;;7.40;99.90;;;;;;5053370;28;19928;-87
2024/03/01 06:12:54;;;;;;;;;;;7.50;99.90;;;;;;5061648;28;19912;-87
2024/03/01 06:15:21;;;;;;;;;;;7.50;99.90;;;;;;5054124;28;19905;-87
2024/03/01 06:17:48;;;;;;;;;;;6.80;99.90;;;;;;5053175;28;19921;-87
2024/03/01 06:20:15;;;;;;;;;;;7.90;99.90;;;;;;5051079;28;19920;-87
2024/03/01 06:22:42;;;;;;;;;;;7.50;99.90;;;;;;5049809;28;19925;-87
2024/03/01 06:25:10;;;;;;;;;;;7.00;99.90;;;;;;5051222;28;19967;-87
2024/03/01 06:27:37;;;;;;;;;;;7.50;99.90;;;;;;5051612;28;19928;-87
2024/03/01 06:30:05;;;;;;;;;;;7.50;99.90;;;;;;5053929;28;19912;-86
2024/03/01 06:32:31;;;;;;;;;;;7.60;99.90;;;;;;5061276;28;19909;-87
2024/03/01 06:35:00;;;;;;;;;;;7.50;99.90;;;;;;5058559;28;19932;-87
2024/03/01 06:37:26;;;;;;;;;;;7.60;99.90;;;;;;5052762;28;19949;-87
2024/03/01 06:39:54;;;;;;;;;;;7.60;99.90;;;;;;5051735;28;20439;-87
2024/03/01 06:42:22;;;;;;;;;;;7.70;99.90;;;;;;5052967;28;19921;-86
2024/03/01 06:44:49;;;;;;;;;;;7.60;99.90;;;;;;5054121;28;19921;-87
2024/03/01 06:47:16;;;;;;;;;;;7.60;99.90;;;;;;5053260;28;19944;-88
2024/03/01 06:49:42;;;;;;;;;;;7.50;99.90;;;;;;5059568;28;19940;-86
2024/03/01 06:52:10;;;;;;;;;;;7.60;99.90;;;;;;5054407;28;19983;-86
2024/03/01 06:54:37;;;;;;;;;;;7.70;99.90;;;;;;5055474;28;19928;-86
2024/03/01 06:57:04;;;;;;;;;;;7.80;99.90;;;;;;5058718;28;19920;-87
2024/03/01 06:59:32;;;;;;;;;;;7.70;99.90;;;;;;5061226;28;19905;-86
2024/03/01 07:01:59;;;;;;;;;;;7.70;99.90;;;;;;5061185;28;19912;-85
2024/03/01 07:04:26;;;;;;;;;;;7.70;99.90;;;;;;5061198;28;19905;-85
2024/03/01 07:06:53;;;;;;;;;;;7.70;99.90;;;;;;5061104;28;19909;-85
2024/03/01 07:09:20;;;;;;;;;;;7.70;99.90;;;;;;5060771;28;19947;-86
2024/03/01 07:11:47;;;;;;;;;;;7.70;99.90;;;;;;5059269;28;19972;-85
2024/03/01 07:14:14;;;;;;;;;;;7.60;99.90;;;;;;5049777;28;19921;-86
2024/03/01 07:16:42;;;;;;;;;;;7.80;99.90;;;;;;5051990;28;19928;-85
2024/03/01 07:19:09;;;;;;;;;;;7.80;99.90;;;;;;5050345;28;19925;-86
2024/03/01 07:21:36;;;;;;;;;;;7.80;99.90;;;;;;5058002;28;19928;-84
2024/03/01 07:24:03;;;;;;;;;;;7.80;99.90;;;;;;5051903;28;19988;-87
2024/03/01 07:26:30;;;;;;;;;;;7.80;99.90;;;;;;5048380;28;19921;-86
2024/03/01 07:28:57;;;;;;;;;;;7.80;99.90;;;;;;5056406;28;19921;-87
2024/03/01 07:31:24;;;;;;;;;;;8.00;99.90;;;;;;5057472;28;19981;-87
2024/03/01 07:33:52;;;;;;;;;;;7.80;99.90;;;;;;5051043;28;19968;-87
2024/03/01 07:36:19;;;;;;;;;;;7.70;99.90;;;;;;5051388;28;19925;-87
2024/03/01 07:38:47;;;;;;;;;;;7.70;99.90;;;;;;5050273;28;19921;-86
2024/03/01 07:41:18;;;;;;;;;;;7.90;99.90;;;;;;5050665;28;19921;-86
2024/03/01 07:43:44;;;;;;;;;;;7.70;99.90;;;;;;5049290;28;19960;-87
2024/03/01 07:46:14;;;;;;;;;;;8.00;99.90;;;;;;5053637;28;19928;-88
2024/03/01 07:48:43;;;;;;;;;;;7.70;99.90;;;;;;5058113;28;19921;-87
2024/03/01 07:51:12;;;;;;;;;;;7.90;99.90;;;;;;5057364;28;19947;-87
2024/03/01 07:53:39;;;;;;;;;;;7.70;99.90;;;;;;5054801;28;19982;-86
2024/03/01 07:56:06;;;;;;;;;;;8.20;99.90;;;;;;5060153;28;19905;-88
2024/03/01 07:58:33;;;;;;;;;;;7.80;99.90;;;;;;5050401;28;19944;-88
2024/03/01 08:01:00;;;;;;;;;;;7.80;99.90;;;;;;5050394;28;19921;-87
2024/03/01 08:03:27;;;;;;;;;;;7.70;99.90;;;;;;5060034;28;19912;-86
2024/03/01 08:05:54;;;;;;;;;;;7.70;99.90;;;;;;5058295;28;19928;-87
2024/03/01 08:08:28;;;;;;;;;;;7.80;99.90;;;;;;5045881;28;19921;-88
2024/03/01 08:10:55;;;;;;;;;;;7.80;99.90;;;;;;5046793;28;20382;-85
2024/03/01 08:13:22;;;;;;;;;;;7.70;99.90;;;;;;5049939;28;19925;-85
2024/03/01 08:15:49;;;;;;;;;;;7.80;99.90;;;;;;5051759;28;20385;-85
2024/03/01 08:18:17;;;;;;;;;;;7.90;99.90;;;;;;5050978;28;20441;-86
2024/03/01 08:21:05;;;;;;;;;;;8.20;99.90;;;;;;5046140;28;19925;-87
2024/03/01 08:23:37;;;;;;;;;;;7.80;99.90;;;;;;5047167;28;19924;-87
2024/03/01 08:26:03;;;;;;;;;;;7.80;99.90;;;;;;5056057;28;19921;-87
2024/03/01 08:28:31;;;;;;;;;;;7.80;99.90;;;;;;5046251;28;19921;-88
2024/03/01 08:31:03;;;;;;;;;;;7.90;99.90;;;;;;5045132;28;19921;-88
2024/03/01 08:33:32;;;;;;;;;;;7.90;99.90;;;;;;5043946;28;19928;-88
2024/03/01 08:35:59;;;;;;;;;;;7.90;99.90;;;;;;5042672;28;20016;-88
2024/03/01 08:38:59;;;;;;;;;;;8.00;99.90;;;;;;5054875;28;19904;-88
2024/03/01 08:41:28;;;;;;;;;;;7.90;99.90;;;;;;5059179;28;19909;-87
2024/03/01 08:43:57;;;;;;;;;;;7.90;99.90;;;;;;5058124;28;19905;-87
2024/03/01 08:46:28;;;;;;;;;;;8.00;99.90;;;;;;5047001;28;19956;-88
2024/03/01 08:48:55;;;;;;;;;;;8.20;99.90;;;;;;5045923;28;19921;-88
2024/03/01 08:51:22;;;;;;;;;;;8.00;99.90;;;;;;5047241;28;19931;-87
2024/03/01 08:53:58;;;;;;;;;;;8.00;99.90;;;;;;5046737;28;19960;-89
2024/03/01 08:56:32;;;;;;;;;;;8.10;99.90;;;;;;5042178;28;19921;-88
2024/03/01 08:59:00;;;;;;;;;;;8.10;99.90;;;;;;5044931;28;19971;-88
2024/03/01 09:01:39;;;;;;;;;;;8.10;99.90;;;;;;5043474;28;20267;-86
2024/03/01 09:07:20;;;;;;;;;;;8.20;99.90;;;;;;5031170;28;19991;-88
2024/03/01 09:09:57;;;;;;;;;;;7.50;99.90;;;;;;5047842;28;19944;-89
2024/03/01 09:12:27;;;;;;;;;;;8.30;99.90;;;;;;5052302;28;19921;-89
2024/03/01 09:17:48;;;;;;;;;;;8.50;92.60;;;;;;5055184;28;19932;-88
2024/03/01 09:20:36;;;;;;;;;;;8.50;50.50;;;;;;5054249;28;19988;-86
2024/03/01 09:23:09;;;;;;;;;;;8.70;16.80;;;;;;5049840;28;19921;-88
2024/03/01 09:25:59;;;;;;;;;;;8.60;1.00;;;;;;5045990;28;19921;-88
2024/03/01 09:28:37;;;;;;;;;;;8.60;1.00;;;;;;5046000;28;19952;-87
2024/03/01 09:31:08;;;;;;;;;;;8.70;1.00;;;;;;5045510;28;19948;-89
2024/03/01 09:33:35;;;;;;;;;;;8.80;1.00;;;;;;5059189;23;19956;-85
2024/03/01 09:36:01;;;;;;;;;;;8.80;1.00;;;;;;5045468;28;19921;-86
2024/03/01 09:38:28;;;;;;;;;;;8.80;1.00;;;;;;5048833;28;19924;-86
2024/03/01 09:41:12;;;;;;;;;;;8.80;1.00;;;;;;5050498;28;19928;-85
2024/03/01 09:43:44;;;;;;;;;;;8.90;1.00;;;;;;5043423;28;19961;-85
2024/03/01 09:46:17;;;;;;;;;;;8.90;1.00;;;;;;5044149;28;19920;-85
2024/03/01 09:48:53;;;;;;;;;;;8.90;1.00;;;;;;5043990;28;19929;-85
2024/03/01 09:51:25;;;;;;;;;;;9.00;1.00;;;;;;5044902;28;20370;-86
2024/03/01 09:53:59;;;;;;;;;;;8.90;1.00;;;;;;5044655;28;19925;-84
2024/03/01 09:56:28;;;;;;;;;;;8.90;1.00;;;;;;5047060;28;19975;-85
2024/03/01 09:59:08;;;;;;;;;;;9.20;99.90;;;;;;5059778;28;19928;-84
2024/03/01 10:01:37;;;;;;;;;;;9.10;99.90;;;;;;5059473;28;19921;-83
2024/03/01 10:04:10;;;;;;;;;;;9.30;99.90;;;;;;5055727;28;19921;-85
2024/03/01 10:06:52;;;;;;;;;;;9.30;99.90;;;;;;5054343;28;19952;-85
2024/03/01 10:09:25;;;;;;;;;;;9.30;99.90;;;;;;5058580;28;19916;-84
2024/03/01 10:11:57;;;;;;;;;;;9.40;99.90;;;;;;5051993;28;19955;-85
2024/03/01 10:15:05;;;;;;;;;;;9.40;99.90;;;;;;5045786;28;19925;-91
2024/03/01 10:17:40;;;;;;;;;;;9.30;99.90;;;;;;5044232;28;19928;-86
2024/03/01 10:20:18;;;;;;;;;;;9.50;99.90;;;;;;5044858;28;19934;-88
2024/03/01 10:22:52;;;;;;;;;;;9.90;99.90;;;;;;5050569;28;19905;-88
2024/03/01 10:25:24;;;;;;;;;;;9.30;99.90;;;;;;5061269;28;19921;-87
2024/03/01 10:28:01;;;;;;;;;;;9.40;99.90;;;;;;5055099;28;20455;-87
2024/03/01 10:30:32;;;;;;;;;;;9.50;69.20;;;;;;5048664;28;19948;-87
2024/03/01 10:33:26;;;;;;;;;;;9.60;1.00;;;;;;5061104;28;19905;-89
2024/03/01 10:36:00;;;;;;;;;;;9.50;1.00;;;;;;5043362;28;19909;-88
2024/03/01 10:38:30;;;;;;;;;;;9.80;1.00;;;;;;5057528;28;19965;-86
2024/03/01 10:41:04;;;;;;;;;;;9.40;34.50;;;;;;5056109;28;19916;-87
2024/03/01 10:43:38;;;;;;;;;;;9.50;38.30;;;;;;5058185;28;19921;-87
2024/03/01 10:46:16;;;;;;;;;;;9.60;53.60;;;;;;5045003;28;19921;-88
2024/03/01 10:48:47;;;;;;;;;;;10.00;24.80;;;;;;5042004;28;19975;-87
2024/03/01 10:51:19;;;;;;;;;;;9.80;1.00;;;;;;5041014;28;19925;-87
2024/03/01 10:53:50;;;;;;;;;;;9.90;1.00;;;;;;5040885;28;19984;-88
2024/03/01 10:56:22;;;;;;;;;;;9.80;1.00;;;;;;5040658;28;19921;-88
2024/03/01 10:58:53;;;;;;;;;;;10.00;1.00;;;;;;5045890;28;19921;-87
2024/03/01 11:01:25;;;;;;;;;;;10.00;1.00;;;;;;5041511;28;19948;-87
2024/03/01 11:03:58;;;;;;;;;;;10.10;1.00;;;;;;5044486;28;19921;-86
2024/03/01 11:06:33;;;;;;;;;;;9.80;1.00;;;;;;5043290;28;19921;-88
2024/03/01 11:09:09;;;;;;;;;;;10.00;1.00;;;;;;5043175;28;19921;-88
2024/03/01 11:11:39;;;;;;;;;;;9.90;1.00;;;;;;5042308;28;19964;-88
2024/03/01 11:14:12;;;;;;;;;;;9.80;1.00;;;;;;5041745;28;20294;-88
2024/03/01 11:16:40;;;;;;;;;;;10.60;1.00;;;;;;5042811;28;19925;-87
2024/03/01 11:19:08;;;;;;;;;;;9.90;1.00;;;;;;5057483;28;20293;-87
2024/03/01 11:21:48;;;;;;;;;;;10.50;1.00;;;;;;5039322;28;19921;-85
2024/03/01 11:24:19;;;;;;;;;;;10.10;1.00;;;;;;5039694;28;20015;-86
2024/03/01 11:26:49;;;;;;;;;;;9.50;1.00;;;;;;5039122;28;20321;-87
2024/03/01 11:29:25;;;;;;;;;;;10.20;1.00;;;;;;5039463;28;19925;-87
2024/03/01 11:32:04;;;;;;;;;;;10.10;1.00;;;;;;5040283;28;20365;-88
2024/03/01 11:34:38;;;;;;;;;;;10.20;1.00;;;;;;5040352;28;19920;-89
2024/03/01 11:37:17;;;;;;;;;;;10.40;1.00;;;;;;5039462;28;19927;-88
2024/03/01 11:39:49;;;;;;;;;;;10.00;1.00;;;;;;5038572;28;20008;-88
2024/03/01 11:42:23;;;;;;;;;;;9.90;1.00;;;;;;5038434;28;20288;-88
2024/03/01 11:44:59;;;;;;;;;;;10.50;1.00;;;;;;5038429;28;20390;-88
2024/03/01 11:47:35;;;;;;;;;;;9.90;1.00;;;;;;5039711;28;19921;-89
2024/03/01 11:50:13;;;;;;;;;;;10.20;1.00;;;;;;5055351;28;19967;-89
2024/03/01 11:52:48;;;;;;;;;;;10.00;1.00;;;;;;5059519;28;19909;-88
2024/03/01 11:55:24;;;;;;;;;;;10.70;1.00;;;;;;5041535;28;19921;-89
2024/03/01 11:57:59;;;;;;;;;;;10.10;1.00;;;;;;5039574;28;19925;-89
2024/03/01 12:00:53;;;;;;;;;;;10.60;1.00;;;;;;5039505;28;19940;-89
2024/03/01 12:03:58;;;;;;;;;;;;;;;;;;;;;
2024/03/01 12:47:03;;;;;;;;;;;10.40;99.90;;;;;;5021512;28;19976;-89
2024/03/01 12:56:05;;;;;;;;;;;10.50;99.90;;;;;;5020184;28;20349;-89
2024/03/01 13:05:34;;;;;;;;;;;;;;;;;;;;;
2024/03/01 13:11:19;;;;;;;;;;;10.70;99.90;;;;;;4895405;29;19934;-84
2024/03/01 13:13:51;;;;;;;;;;;10.80;99.90;;;;;;4896022;29;19940;-83
2024/03/01 13:16:18;;;;;;;;;;;10.50;99.90;;;;;;4943203;29;20013;-83
2024/03/01 13:18:49;;;;;;;;;;;10.40;99.90;;;;;;5012071;28;19944;-83
2024/03/01 13:21:20;;;;;;;;;;;9.80;99.90;;;;;;5038450;28;19909;-83
2024/03/01 13:23:52;;;;;;;;;;;10.50;99.90;;;;;;5028647;28;19951;-84
2024/03/01 13:26:28;;;;;;;;;;;10.50;99.90;;;;;;5035335;28;19972;-83
2024/03/01 13:28:58;;;;;;;;;;;10.50;99.90;;;;;;5036628;28;19929;-83
2024/03/01 13:31:26;;;;;;;;;;;10.40;99.90;;;;;;5030100;28;19959;-84
2024/03/01 15:20:05;;;;;;;;;;;;;;;;;;;;;
2024/03/01 15:41:06;;;;;;;;;;;9.80;99.90;;;;;;4991556;28;19994;-91
2024/03/01 16:04:17;;;;;;;;;;;9.80;1.00;;;;;;3716036;23;20061;-85
2024/03/01 16:06:44;;;;;;;;;;;9.80;1.00;;;;;;5040070;28;19909;-86
2024/03/01 16:09:12;;;;;;;;;;;9.80;1.00;;;;;;5038683;28;19922;-88
2024/03/01 16:11:41;;;;;;;;;;;9.80;1.00;;;;;;5031443;28;19944;-88
2024/03/01 16:14:10;;;;;;;;;;;10.30;1.00;;;;;;5033394;28;19921;-88
2024/03/01 16:16:37;;;;;;;;;;;9.70;1.00;;;;;;5036325;28;19948;-87
2024/03/01 16:19:07;;;;;;;;;;;9.70;1.00;;;;;;5036376;28;19981;-87
2024/03/01 16:21:35;;;;;;;;;;;9.70;1.00;;;;;;5032365;28;19906;-88
2024/03/01 16:24:05;;;;;;;;;;;9.70;1.00;;;;;;5033086;28;19929;-87
2024/03/01 16:26:31;;;;;;;;;;;9.70;1.00;;;;;;5029681;28;19921;-88
2024/03/01 16:28:58;;;;;;;;;;;9.70;1.00;;;;;;5032536;28;19929;-87
2024/03/01 16:31:25;;;;;;;;;;;9.60;1.00;;;;;;5031989;28;19972;-86
2024/03/01 16:33:52;;;;;;;;;;;9.60;1.00;;;;;;5029994;28;19925;-87
2024/03/01 16:36:19;;;;;;;;;;;9.50;1.00;;;;;;5029544;28;19921;-86
2024/03/01 16:38:47;;;;;;;;;;;9.50;1.00;;;;;;5029435;28;19944;-87
2024/03/01 16:41:32;;;;;;;;;;;9.40;1.00;;;;;;5030616;28;19922;-88
2024/03/01 16:44:01;;;;;;;;;;;9.40;1.00;;;;;;5030275;28;19945;-87
2024/03/01 16:46:28;;;;;;;;;;;9.40;1.00;;;;;;5030782;28;19921;-87
2024/03/01 16:48:56;;;;;;;;;;;9.30;1.00;;;;;;5030182;28;20414;-87
2024/03/01 16:51:33;;;;;;;;;;;9.30;1.00;;;;;;5031763;28;19922;-88
2024/03/01 16:54:03;;;;;;;;;;;9.20;4.20;;;;;;5031056;28;19958;-88
2024/03/01 16:56:32;;;;;;;;;;;9.20;40.60;;;;;;5034931;28;19921;-86
2024/03/01 16:59:02;;;;;;;;;;;9.10;33.50;;;;;;5036686;28;19921;-87
2024/03/01 17:01:38;;;;;;;;;;;9.30;33.30;;;;;;5031400;28;19921;-87
2024/03/01 17:04:05;;;;;;;;;;;9.30;14.30;;;;;;5028486;28;19945;-87
2024/03/01 17:06:32;;;;;;;;;;;9.20;50.60;;;;;;5031648;28;19921;-86
2024/03/01 17:08:59;;;;;;;;;;;9.20;57.00;;;;;;5029268;28;19922;-86
2024/03/01 17:11:28;;;;;;;;;;;9.70;30.40;;;;;;5031047;28;19944;-87
2024/03/01 17:13:57;;;;;;;;;;;9.10;32.00;;;;;;5027749;28;19988;-87
2024/03/01 17:16:27;;;;;;;;;;;9.80;99.20;;;;;;5034453;28;19969;-87
2024/03/01 17:18:55;;;;;;;;;;;9.10;99.90;;;;;;5038605;28;19921;-87
2024/03/01 17:21:24;;;;;;;;;;;9.00;99.90;;;;;;5031660;28;19921;-88
2024/03/01 17:23:51;;;;;;;;;;;8.90;99.90;;;;;;5030637;28;19925;-87
2024/03/01 17:26:18;;;;;;;;;;;9.30;99.90;;;;;;5028541;28;19925;-86
2024/03/01 17:28:46;;;;;;;;;;;9.00;99.90;;;;;;5030680;28;19959;-87
2024/03/01 17:31:12;;;;;;;;;;;9.20;99.90;;;;;;5033018;28;19992;-87
2024/03/01 17:33:40;;;;;;;;;;;9.00;99.90;;;;;;5028757;28;20382;-87
2024/03/01 17:36:07;;;;;;;;;;;9.10;99.90;;;;;;5030798;28;19922;-87
2024/03/01 17:38:43;;;;;;;;;;;9.00;99.90;;;;;;5032146;28;19921;-87
2024/03/01 17:41:12;;;;;;;;;;;8.90;99.90;;;;;;5029806;28;19921;-86
2024/03/01 17:43:39;;;;;;;;;;;9.10;99.90;;;;;;5030488;28;19921;-86
2024/03/01 17:46:08;;;;;;;;;;;9.00;99.90;;;;;;5028643;28;20019;-86
2024/03/01 17:48:35;;;;;;;;;;;9.40;99.90;;;;;;5028119;28;19921;-86
2024/03/01 17:51:02;;;;;;;;;;;8.80;99.90;;;;;;5026979;28;20016;-88
2024/03/01 17:53:29;;;;;;;;;;;8.80;99.90;;;;;;5028580;28;19925;-88
2024/03/01 17:55:56;;;;;;;;;;;9.00;99.90;;;;;;5027679;28;19925;-87
2024/03/01 17:58:23;;;;;;;;;;;8.80;99.90;;;;;;5031553;28;19929;-87
2024/03/01 18:00:50;;;;;;;;;;;9.30;99.90;;;;;;5029608;28;19921;-87
2024/03/01 18:03:19;;;;;;;;;;;9.60;99.90;;;;;;5033042;28;19944;-85
2024/03/01 18:05:52;;;;;;;;;;;8.80;99.90;;;;;;5034668;28;19929;-89
2024/03/01 18:17:57;;;;;;;;;;;8.90;99.90;;;;;;4947574;29;19926;-90
2024/03/01 18:20:50;;;;;;;;;;;9.20;99.90;;;;;;4976745;28;19980;-88
2024/03/01 18:23:31;;;;;;;;;;;9.10;99.90;;;;;;5026972;28;19921;-88
2024/03/01 18:29:03;;;;;;;;;;;9.30;99.90;;;;;;5025518;28;19921;-89
2024/03/01 18:50:35;;;;;;;;;;;8.90;99.90;;;;;;4981989;28;19934;-87
2024/03/01 19:02:33;;;;;;;;;;;9.30;99.90;;;;;;4948985;28;19970;-88
2024/03/01 19:14:40;;;;;;;;;;;9.20;99.90;;;;;;4948950;29;20013;-88
2024/03/01 19:17:39;;;;;;;;;;;8.50;99.90;;;;;;5016946;28;20484;-89
2024/03/01 19:20:39;;;;;;;;;;;8.60;99.90;;;;;;5040823;28;19928;-88
2024/03/01 19:26:54;;;;;;;;;;;7.40;99.90;;;;;;5006030;28;19945;-88
2024/03/01 19:50:53;;;;;;;;;;;8.50;99.90;;;;;;5011122;28;19984;-88
2024/03/01 19:57:05;;;;;;;;;;;8.60;99.90;;;;;;4942525;29;19923;-88
2024/03/01 20:03:37;;;;;;;;;;;;;;;;;;;;;
2024/03/01 20:06:23;;;;;;;;;;;8.00;99.90;;;;;;5014952;28;19960;-88
2024/03/01 20:09:19;;;;;;;;;;;8.90;99.90;;;;;;5039603;28;19921;-88
2024/03/01 20:51:28;;;;;;;;;;;7.40;1.00;;;;;;4956788;29;19926;-89
2024/03/01 20:54:20;;;;;;;;;;;8.50;1.00;;;;;;4946411;29;19929;-88
2024/03/01 21:00:19;;;;;;;;;;;8.40;1.00;;;;;;4869443;29;19958;-88
2024/03/01 21:03:27;;;;;;;;;;;8.40;1.00;;;;;;4867874;29;19989;-88
2024/03/01 21:21:57;;;;;;;;;;;9.00;1.00;;;;;;4819451;29;19952;-89
2024/03/01 21:28:03;;;;;;;;;;;;;;;;;;;;;
2024/03/01 21:52:36;;;;;;;;;;;8.70;1.00;;;;;;4825897;29;19998;-90
2024/03/01 22:01:29;;;;;;;;;;;7.90;1.00;;;;;;4800048;29;20303;-88
2024/03/01 22:15:41;;;;;;;;;;;8.10;1.00;;;;;;5033537;28;19905;-89
2024/03/01 22:18:16;;;;;;;;;;;8.10;1.00;;;;;;5039512;28;19921;-89
2024/03/01 22:20:43;;;;;;;;;;;8.10;1.00;;;;;;5039921;28;19944;-89
2024/03/01 22:23:11;;;;;;;;;;;8.10;1.00;;;;;;5039647;28;19928;-91
2024/03/01 22:25:39;;;;;;;;;;;8.00;1.00;;;;;;5039437;28;19944;-90
2024/03/01 22:28:09;;;;;;;;;;;7.90;1.00;;;;;;5040347;28;19968;-91
2024/03/01 22:30:54;;;;;;;;;;;7.90;1.00;;;;;;5040131;28;19948;-92
2024/03/01 22:33:21;;;;;;;;;;;8.10;1.00;;;;;;4988413;28;19929;-92
2024/03/01 22:35:49;;;;;;;;;;;8.10;1.00;;;;;;5039444;28;19925;-90
2024/03/01 22:38:16;;;;;;;;;;;7.90;1.00;;;;;;5038902;28;19910;-91
2024/03/01 22:40:44;;;;;;;;;;;7.90;1.00;;;;;;5040146;28;19909;-90
2024/03/01 22:43:12;;;;;;;;;;;7.80;1.00;;;;;;5040070;28;19932;-89
2024/03/01 22:45:40;;;;;;;;;;;7.90;1.00;;;;;;5039844;28;19912;-91
2024/03/01 22:48:08;;;;;;;;;;;7.90;1.00;;;;;;5040177;28;19916;-90
2024/03/01 22:50:39;;;;;;;;;;;7.60;1.00;;;;;;5039945;28;19909;-92
2024/03/01 22:53:07;;;;;;;;;;;7.80;1.00;;;;;;5037117;28;19917;-89
2024/03/01 22:55:39;;;;;;;;;;;7.90;1.00;;;;;;5036506;28;19925;-90
2024/03/01 22:58:06;;;;;;;;;;;7.40;1.00;;;;;;5039054;28;19920;-89
2024/03/01 23:00:40;;;;;;;;;;;7.80;1.00;;;;;;5035204;28;19922;-90
2024/03/01 23:31:32;;;;;;;;;;;7.90;1.00;;;;;;6039223;22;6934698;-95
